Time;durP1;ratioP1;P1;durP2;ratioP2;P2;SDS_P1;SDS_P2;PMS_P1;PMS_P2;Temp;Humidity;BMP_temperature;BMP_pressure;BME280_temperature;BME280_humidity;BME280_pressure;Samples;Min_cycle;Max_cycle;Signal;HPM_P1;HPM_P2
2023/04/28 00:00:07;;;;;;;1.60;0.87;;;12.80;99.90;;;;;;5055488;28;20462;-82
2023/04/28 00:02:34;;;;;;;1.57;0.97;;;12.70;99.90;;;;;;5054853;28;20482;-82
2023/04/28 00:05:01;;;;;;;2.30;1.40;;;12.60;99.90;;;;;;5055277;28;20442;-83
2023/04/28 00:07:27;;;;;;;1.77;1.00;;;12.50;99.90;;;;;;5055232;28;20431;-82
2023/04/28 00:09:55;;;;;;;1.67;0.97;;;12.40;99.90;;;;;;5055185;28;20457;-82
2023/04/28 00:12:23;;;;;;;1.30;0.90;;;12.30;99.90;;;;;;5055032;28;20900;-82
2023/04/28 00:14:50;;;;;;;1.03;0.90;;;12.30;99.90;;;;;;5054857;28;20438;-82
2023/04/28 00:17:17;;;;;;;1.00;0.90;;;12.30;99.90;;;;;;5054687;28;20455;-82
2023/04/28 00:19:44;;;;;;;0.93;0.83;;;12.30;99.90;;;;;;5054996;28;20489;-82
2023/04/28 00:22:10;;;;;;;0.83;0.83;;;12.20;99.90;;;;;;5054571;28;20996;-82
2023/04/28 00:24:37;;;;;;;1.03;0.80;;;12.30;99.90;;;;;;5054919;28;20454;-82
2023/04/28 00:27:04;;;;;;;0.80;0.80;;;12.30;99.90;;;;;;5054784;28;20950;-82
2023/04/28 00:29:32;;;;;;;0.90;0.70;;;12.30;99.90;;;;;;5054827;28;20442;-83
2023/04/28 00:31:58;;;;;;;1.33;0.90;;;12.40;99.90;;;;;;5054560;28;21004;-82
2023/04/28 00:34:25;;;;;;;1.30;0.80;;;12.30;99.90;;;;;;5054692;28;20446;-82
2023/04/28 00:36:52;;;;;;;0.90;0.90;;;12.40;99.90;;;;;;5054685;28;20463;-82
2023/04/28 00:39:18;;;;;;;2.30;1.30;;;12.40;99.90;;;;;;5054235;28;20474;-83
2023/04/28 00:41:45;;;;;;;4.10;0.80;;;12.40;99.90;;;;;;5054494;28;20462;-83
2023/04/28 00:44:12;;;;;;;3.33;1.00;;;12.40;99.90;;;;;;5054517;28;20454;-82
2023/04/28 00:46:40;;;;;;;3.10;1.27;;;12.40;99.90;;;;;;5054386;28;20449;-83
2023/04/28 00:49:07;;;;;;;1.30;0.80;;;12.40;99.90;;;;;;5053645;28;20438;-83
2023/04/28 00:51:34;;;;;;;1.13;0.80;;;12.40;99.90;;;;;;5054006;28;21000;-82
2023/04/28 00:54:01;;;;;;;2.50;0.87;;;12.40;99.90;;;;;;5054021;28;20500;-83
2023/04/28 00:56:29;;;;;;;1.23;0.60;;;12.40;99.90;;;;;;5054039;28;20472;-82
2023/04/28 00:58:56;;;;;;;2.30;0.90;;;12.40;99.90;;;;;;5053895;28;20474;-83
2023/04/28 01:01:23;;;;;;;1.27;0.87;;;12.50;99.90;;;;;;5053901;28;20489;-82
2023/04/28 01:03:51;;;;;;;7.63;1.10;;;12.50;99.90;;;;;;5054144;28;20453;-82
2023/04/28 01:06:19;;;;;;;1.13;0.93;;;12.50;99.90;;;;;;5054052;28;20463;-83
2023/04/28 01:08:49;;;;;;;1.20;1.00;;;12.50;99.90;;;;;;5054199;28;20447;-83
2023/04/28 01:11:16;;;;;;;1.13;0.73;;;12.50;99.90;;;;;;5053927;28;20489;-83
2023/04/28 01:13:42;;;;;;;0.97;0.93;;;12.50;99.90;;;;;;5053983;28;20549;-83
2023/04/28 01:16:10;;;;;;;1.20;0.70;;;12.50;99.90;;;;;;5053965;28;20457;-83
2023/04/28 01:18:37;;;;;;;1.80;1.30;;;12.50;99.90;;;;;;5053815;28;20486;-83
2023/04/28 01:21:05;;;;;;;2.03;1.13;;;12.50;99.90;;;;;;5053485;28;20474;-83
2023/04/28 01:23:32;;;;;;;1.43;0.60;;;12.50;99.90;;;;;;5053442;28;20878;-83
2023/04/28 01:26:00;;;;;;;2.27;1.30;;;12.50;99.90;;;;;;5053771;28;20442;-83
2023/04/28 01:28:27;;;;;;;1.20;1.10;;;12.50;99.90;;;;;;5053630;28;20553;-82
2023/04/28 01:30:55;;;;;;;0.80;0.77;;;12.50;99.90;;;;;;5053665;28;20472;-83
2023/04/28 01:33:22;;;;;;;5.83;1.63;;;12.50;99.90;;;;;;5053380;28;21136;-83
2023/04/28 01:35:48;;;;;;;1.00;0.80;;;12.50;99.90;;;;;;5053601;28;20446;-83
2023/04/28 01:38:15;;;;;;;2.20;0.90;;;12.50;99.90;;;;;;5053529;28;20489;-83
2023/04/28 01:40:42;;;;;;;1.40;1.00;;;12.50;99.90;;;;;;5053452;28;20450;-83
2023/04/28 01:43:10;;;;;;;0.60;0.60;;;12.50;99.90;;;;;;5053514;28;20450;-83
2023/04/28 01:45:37;;;;;;;1.40;1.00;;;12.50;99.90;;;;;;5053401;28;20820;-83
2023/04/28 01:48:03;;;;;;;0.70;0.70;;;12.50;99.90;;;;;;5053188;28;20965;-83
2023/04/28 01:50:30;;;;;;;1.10;1.00;;;12.50;99.90;;;;;;5053378;28;20461;-83
2023/04/28 01:52:57;;;;;;;1.60;1.00;;;12.40;99.90;;;;;;5053116;28;20442;-83
2023/04/28 01:55:24;;;;;;;2.03;1.10;;;12.40;99.90;;;;;;5053340;28;20453;-83
2023/04/28 01:57:50;;;;;;;1.70;1.10;;;12.40;99.90;;;;;;5053361;28;20455;-83
2023/04/28 02:00:19;;;;;;;1.73;0.83;;;12.40;99.90;;;;;;5052911;28;20486;-83
2023/04/28 02:02:46;;;;;;;0.90;0.70;;;12.40;99.90;;;;;;5052791;28;20483;-83
2023/04/28 02:05:12;;;;;;;1.20;1.10;;;12.40;99.90;;;;;;5053018;28;20442;-83
2023/04/28 02:07:39;;;;;;;1.33;1.23;;;12.30;99.90;;;;;;5053210;28;20450;-83
2023/04/28 02:10:06;;;;;;;1.40;1.30;;;12.30;99.90;;;;;;5053358;28;20454;-83
2023/04/28 02:12:33;;;;;;;1.23;0.80;;;12.30;99.90;;;;;;5053125;28;20472;-83
2023/04/28 02:15:00;;;;;;;0.97;0.73;;;12.30;99.90;;;;;;5053258;28;20462;-83
2023/04/28 02:17:30;;;;;;;1.43;1.33;;;12.30;99.90;;;;;;5053177;28;20457;-83
2023/04/28 02:19:57;;;;;;;2.70;0.80;;;12.30;99.90;;;;;;5053089;28;20487;-82
2023/04/28 02:22:23;;;;;;;2.23;1.40;;;12.30;99.90;;;;;;5053047;28;20473;-82
2023/04/28 02:24:50;;;;;;;0.90;0.77;;;12.30;99.90;;;;;;5052769;28;20446;-82
2023/04/28 02:27:17;;;;;;;1.90;1.07;;;12.30;99.90;;;;;;5053122;28;20736;-83
2023/04/28 02:29:44;;;;;;;3.03;0.90;;;12.40;99.90;;;;;;5053086;28;20793;-83
2023/04/28 02:32:10;;;;;;;1.90;0.60;;;12.30;99.90;;;;;;5052815;28;20450;-83
2023/04/28 02:34:38;;;;;;;1.10;0.90;;;12.40;99.90;;;;;;5052685;28;21021;-83
2023/04/28 02:37:05;;;;;;;0.63;0.63;;;12.40;99.90;;;;;;5052997;28;20457;-83
2023/04/28 02:39:32;;;;;;;1.07;0.90;;;12.40;99.90;;;;;;5052848;28;20485;-82
2023/04/28 02:41:59;;;;;;;1.67;0.77;;;12.40;99.90;;;;;;5052580;28;20463;-83
2023/04/28 02:44:26;;;;;;;1.83;1.10;;;12.40;99.90;;;;;;5052895;28;20446;-83
2023/04/28 02:46:52;;;;;;;1.90;1.00;;;12.40;99.90;;;;;;5052618;28;20474;-83
2023/04/28 02:49:19;;;;;;;3.17;1.40;;;12.40;99.90;;;;;;5052922;28;20446;-83
2023/04/28 02:51:47;;;;;;;2.97;1.30;;;12.40;99.90;;;;;;5052759;28;20466;-83
2023/04/28 02:54:14;;;;;;;1.60;1.07;;;12.40;99.90;;;;;;5052838;28;20450;-83
2023/04/28 02:56:41;;;;;;;1.37;0.70;;;12.40;99.90;;;;;;5052949;28;20477;-82
2023/04/28 02:59:07;;;;;;;3.43;1.27;;;12.40;99.90;;;;;;5052332;28;21013;-83
2023/04/28 03:01:34;;;;;;;1.27;1.07;;;12.40;99.90;;;;;;5052357;28;21016;-83
2023/04/28 03:04:01;;;;;;;1.40;1.03;;;12.40;99.90;;;;;;5052740;28;20457;-83
2023/04/28 03:06:28;;;;;;;0.97;0.87;;;12.40;99.90;;;;;;5052715;28;20434;-82
2023/04/28 03:08:56;;;;;;;3.20;0.93;;;12.40;99.90;;;;;;5052374;28;20471;-83
2023/04/28 03:11:23;;;;;;;2.17;1.00;;;12.40;99.90;;;;;;5053806;28;20501;-83
2023/04/28 03:13:49;;;;;;;1.00;0.90;;;12.40;99.90;;;;;;5056283;28;20454;-83
2023/04/28 03:16:16;;;;;;;0.73;0.70;;;12.40;99.90;;;;;;5056293;28;20530;-83
2023/04/28 03:18:43;;;;;;;0.80;0.80;;;12.50;99.90;;;;;;5055810;28;20489;-83
2023/04/28 03:21:09;;;;;;;2.87;0.90;;;12.40;99.90;;;;;;5056075;28;20470;-83
2023/04/28 03:23:36;;;;;;;3.60;0.80;;;12.40;99.90;;;;;;5055801;28;20958;-82
2023/04/28 03:26:04;;;;;;;1.37;0.97;;;12.40;99.90;;;;;;5056037;28;20445;-83
2023/04/28 03:28:31;;;;;;;4.53;1.03;;;12.40;99.90;;;;;;5055704;28;20937;-83
2023/04/28 03:30:58;;;;;;;0.90;0.90;;;12.40;99.90;;;;;;5055569;28;20888;-83
2023/04/28 03:33:25;;;;;;;0.80;0.80;;;12.40;99.90;;;;;;5055885;28;20459;-83
2023/04/28 03:35:52;;;;;;;0.70;0.70;;;12.30;99.90;;;;;;5055568;28;20950;-82
2023/04/28 03:38:19;;;;;;;1.27;1.17;;;12.30;99.90;;;;;;5055784;28;20523;-83
2023/04/28 03:40:46;;;;;;;2.40;0.90;;;12.30;99.90;;;;;;5055308;28;20916;-83
2023/04/28 03:43:14;;;;;;;0.90;0.67;;;12.30;99.90;;;;;;5055398;28;20976;-83
2023/04/28 03:45:41;;;;;;;6.00;1.70;;;12.30;99.90;;;;;;5055544;28;20454;-83
2023/04/28 03:48:08;;;;;;;1.57;0.90;;;12.30;99.90;;;;;;5055617;28;20454;-83
2023/04/28 03:50:35;;;;;;;2.83;1.27;;;12.30;99.90;;;;;;5055524;28;20522;-82
2023/04/28 03:53:01;;;;;;;0.87;0.63;;;12.20;99.90;;;;;;5055537;28;20457;-82
2023/04/28 03:55:28;;;;;;;6.77;1.17;;;12.30;99.90;;;;;;5055474;28;20478;-83
2023/04/28 03:57:55;;;;;;;0.80;0.70;;;12.30;99.90;;;;;;5055153;28;20952;-82
2023/04/28 04:00:23;;;;;;;1.23;1.07;;;12.30;99.90;;;;;;5055356;28;20850;-83
2023/04/28 04:02:50;;;;;;;1.37;1.20;;;12.30;99.90;;;;;;5055180;28;20976;-82
2023/04/28 04:05:17;;;;;;;7.90;1.13;;;12.20;99.90;;;;;;5055312;28;20529;-83
2023/04/28 04:07:44;;;;;;;0.80;0.70;;;12.20;99.90;;;;;;5055962;28;20837;-82
2023/04/28 04:10:11;;;;;;;1.53;1.20;;;12.30;99.90;;;;;;5055220;28;20449;-83
2023/04/28 04:12:38;;;;;;;0.80;0.80;;;12.20;99.90;;;;;;5055134;28;20478;-83
2023/04/28 04:15:05;;;;;;;1.60;1.00;;;12.20;99.90;;;;;;5055157;28;20447;-83
2023/04/28 04:17:34;;;;;;;1.17;0.70;;;12.20;99.90;;;;;;5054772;28;20489;-82
2023/04/28 04:20:00;;;;;;;2.73;1.03;;;12.20;99.90;;;;;;5054636;28;20994;-83
2023/04/28 04:22:27;;;;;;;0.87;0.60;;;12.20;99.90;;;;;;5054865;28;20474;-83
2023/04/28 04:24:54;;;;;;;1.23;1.13;;;12.20;99.90;;;;;;5054611;28;20965;-82
2023/04/28 04:27:21;;;;;;;1.83;0.83;;;12.20;99.90;;;;;;5054881;28;20443;-82
2023/04/28 04:29:47;;;;;;;2.13;1.93;;;12.10;99.90;;;;;;5054891;28;20439;-82
2023/04/28 04:32:14;;;;;;;0.90;0.83;;;12.00;99.90;;;;;;5054781;28;20473;-82
2023/04/28 04:34:42;;;;;;;2.83;1.63;;;11.90;99.90;;;;;;5054735;28;20454;-82
2023/04/28 04:37:09;;;;;;;2.00;1.53;;;11.80;99.90;;;;;;5054787;28;20442;-82
2023/04/28 04:39:36;;;;;;;1.10;1.00;;;11.70;99.90;;;;;;5054286;28;20485;-82
2023/04/28 04:42:03;;;;;;;1.27;1.00;;;11.70;99.90;;;;;;5054711;28;20475;-82
2023/04/28 04:44:29;;;;;;;2.50;1.27;;;11.60;99.90;;;;;;5054552;28;20447;-82
2023/04/28 04:46:56;;;;;;;1.23;1.13;;;11.60;99.90;;;;;;5054514;28;20451;-83
2023/04/28 04:49:23;;;;;;;1.67;1.00;;;11.40;99.90;;;;;;5054127;28;20957;-82
2023/04/28 04:51:51;;;;;;;1.73;1.30;;;11.40;99.90;;;;;;5054297;28;20481;-82
2023/04/28 04:54:17;;;;;;;1.63;1.10;;;11.40;99.90;;;;;;5054263;28;20446;-82
2023/04/28 04:56:44;;;;;;;1.07;1.03;;;11.30;99.90;;;;;;5054291;28;20477;-83
2023/04/28 04:59:11;;;;;;;1.03;1.00;;;11.30;99.90;;;;;;5054158;28;20449;-82
2023/04/28 05:01:38;;;;;;;2.00;1.80;;;11.20;99.90;;;;;;5053836;28;20581;-83
2023/04/28 05:04:04;;;;;;;0.90;0.60;;;11.20;99.90;;;;;;5054150;28;20454;-82
2023/04/28 05:06:32;;;;;;;1.33;1.10;;;11.10;99.90;;;;;;5054336;28;20789;-82
2023/04/28 05:09:00;;;;;;;0.83;0.80;;;11.10;99.90;;;;;;5054341;28;20452;-82
2023/04/28 05:11:27;;;;;;;2.00;1.03;;;11.00;99.90;;;;;;5053934;28;20478;-82
2023/04/28 05:13:53;;;;;;;3.10;1.03;;;11.00;99.90;;;;;;5053999;28;20458;-82
2023/04/28 05:16:20;;;;;;;1.03;0.90;;;11.00;99.90;;;;;;5053959;28;20450;-82
2023/04/28 05:18:47;;;;;;;0.87;0.87;;;11.00;99.90;;;;;;5053854;28;20453;-82
2023/04/28 05:21:14;;;;;;;3.13;1.00;;;11.00;99.90;;;;;;5053779;28;20490;-82
2023/04/28 05:23:41;;;;;;;12.93;1.77;;;11.00;99.90;;;;;;5054067;28;20455;-82
2023/04/28 05:26:09;;;;;;;2.33;1.30;;;11.00;99.90;;;;;;5053708;28;20450;-82
2023/04/28 05:28:36;;;;;;;1.83;1.10;;;11.00;99.90;;;;;;5053685;28;20973;-82
2023/04/28 05:31:03;;;;;;;1.20;0.70;;;11.00;99.90;;;;;;5053643;28;20481;-82
2023/04/28 05:33:29;;;;;;;1.30;1.20;;;11.00;99.90;;;;;;5053423;28;20450;-83
2023/04/28 05:35:56;;;;;;;0.83;0.83;;;11.10;99.90;;;;;;5053363;28;20451;-83
2023/04/28 05:38:23;;;;;;;4.10;1.87;;;11.10;99.90;;;;;;5053429;28;20442;-83
2023/04/28 05:40:49;;;;;;;0.70;0.70;;;11.10;99.90;;;;;;5053352;28;20478;-83
2023/04/28 05:43:17;;;;;;;1.47;0.80;;;11.10;99.90;;;;;;5053516;28;20450;-82
2023/04/28 05:45:44;;;;;;;2.40;1.20;;;11.20;99.90;;;;;;5053284;28;20434;-83
2023/04/28 05:48:13;;;;;;;0.60;0.60;;;11.20;99.90;;;;;;5053418;28;20454;-83
2023/04/28 05:50:40;;;;;;;1.13;1.03;;;11.30;99.90;;;;;;5053599;28;20443;-83
2023/04/28 05:53:07;;;;;;;0.60;0.60;;;11.20;99.90;;;;;;5053417;28;20797;-83
2023/04/28 05:55:35;;;;;;;2.23;1.40;;;11.20;99.90;;;;;;5053398;28;20489;-83
2023/04/28 05:58:02;;;;;;;1.63;0.90;;;11.20;99.90;;;;;;5053022;28;20459;-83
2023/04/28 06:00:30;;;;;;;3.27;0.97;;;11.20;99.90;;;;;;5052720;28;20894;-83
2023/04/28 06:02:57;;;;;;;1.30;1.20;;;11.20;99.90;;;;;;5053327;28;20435;-83
2023/04/28 06:05:23;;;;;;;1.03;0.90;;;11.30;99.90;;;;;;5053271;28;20451;-82
2023/04/28 06:07:50;;;;;;;1.53;1.00;;;11.40;99.90;;;;;;5053263;28;20446;-83
2023/04/28 06:10:18;;;;;;;0.60;0.60;;;11.40;99.90;;;;;;5053218;28;20449;-83
2023/04/28 06:12:45;;;;;;;0.73;0.73;;;11.40;99.90;;;;;;5053156;28;20462;-82
2023/04/28 06:15:12;;;;;;;1.73;1.10;;;11.40;99.90;;;;;;5053085;28;20941;-82
2023/04/28 06:17:41;;;;;;;2.30;1.20;;;11.60;99.90;;;;;;5052901;28;20820;-83
2023/04/28 06:20:10;;;;;;;1.70;1.17;;;11.60;99.90;;;;;;5053081;28;20490;-83
2023/04/28 06:22:37;;;;;;;0.87;0.80;;;11.70;99.90;;;;;;5053117;28;20568;-83
2023/04/28 06:25:04;;;;;;;1.30;1.20;;;11.70;99.90;;;;;;5053079;28;20454;-83
2023/04/28 06:27:31;;;;;;;1.63;0.70;;;11.80;99.90;;;;;;5053064;28;20458;-82
2023/04/28 06:29:58;;;;;;;3.23;1.47;;;11.80;99.90;;;;;;5052790;28;20443;-82
2023/04/28 06:32:25;;;;;;;2.10;1.10;;;11.90;99.90;;;;;;5052629;28;20467;-82
2023/04/28 06:34:53;;;;;;;1.00;0.80;;;11.90;99.90;;;;;;5052963;28;20453;-82
2023/04/28 06:37:20;;;;;;;1.20;0.77;;;12.00;99.90;;;;;;5052978;28;20470;-82
2023/04/28 06:39:46;;;;;;;2.23;0.90;;;12.00;99.90;;;;;;5052937;28;20844;-82
2023/04/28 06:42:17;;;;;;;0.90;0.80;;;12.00;99.90;;;;;;5052869;28;20470;-83
2023/04/28 06:44:43;;;;;;;1.43;0.80;;;12.10;99.90;;;;;;5052947;28;20443;-83
2023/04/28 06:47:10;;;;;;;1.00;1.00;;;12.10;99.90;;;;;;5055581;28;20434;-83
2023/04/28 06:49:37;;;;;;;1.03;0.83;;;12.10;99.90;;;;;;5056746;28;20446;-83
2023/04/28 06:52:06;;;;;;;0.83;0.80;;;12.10;99.90;;;;;;5056605;28;20470;-83
2023/04/28 06:54:33;;;;;;;1.07;0.90;;;12.10;99.90;;;;;;5056667;28;20450;-83
2023/04/28 06:57:01;;;;;;;1.60;1.10;;;12.10;99.90;;;;;;5056896;28;20455;-83
2023/04/28 06:59:27;;;;;;;0.70;0.70;;;12.20;99.90;;;;;;5056546;28;20450;-83
2023/04/28 07:01:54;;;;;;;3.60;1.13;;;12.20;99.90;;;;;;5056052;28;20505;-83
2023/04/28 07:04:21;;;;;;;2.50;0.60;;;12.30;99.90;;;;;;5057104;28;20481;-83
2023/04/28 07:06:47;;;;;;;0.80;0.70;;;12.40;99.90;;;;;;5056482;28;20454;-83
2023/04/28 07:09:16;;;;;;;2.50;1.00;;;12.40;99.90;;;;;;5056628;28;20446;-83
2023/04/28 07:11:43;;;;;;;1.17;1.07;;;12.20;99.90;;;;;;5056277;28;20869;-83
2023/04/28 07:14:10;;;;;;;2.00;1.20;;;12.30;99.90;;;;;;5055995;28;20821;-83
2023/04/28 07:16:37;;;;;;;1.43;1.33;;;12.30;99.90;;;;;;5056004;28;20972;-83
2023/04/28 07:19:03;;;;;;;2.63;1.03;;;12.40;99.90;;;;;;5056237;28;20838;-82
2023/04/28 07:21:30;;;;;;;1.20;1.03;;;12.40;99.90;;;;;;5056018;28;20494;-82
2023/04/28 07:23:57;;;;;;;2.50;0.90;;;12.50;99.90;;;;;;5055858;28;20965;-82
2023/04/28 07:26:25;;;;;;;2.27;1.30;;;12.50;99.90;;;;;;5056358;28;20446;-82
2023/04/28 07:28:52;;;;;;;2.90;1.07;;;12.60;99.90;;;;;;5056081;28;20442;-82
2023/04/28 07:31:19;;;;;;;5.23;1.70;;;12.60;99.90;;;;;;5055959;28;20798;-82
2023/04/28 07:33:46;;;;;;;1.20;0.50;;;12.70;99.90;;;;;;5055999;28;20437;-82
2023/04/28 07:36:12;;;;;;;0.93;0.60;;;12.70;99.90;;;;;;5055568;28;20820;-82
2023/04/28 07:38:39;;;;;;;1.40;1.10;;;12.70;99.90;;;;;;5055871;28;20426;-82
2023/04/28 07:41:06;;;;;;;0.87;0.83;;;12.60;99.90;;;;;;5055688;28;20482;-82
2023/04/28 07:43:34;;;;;;;1.47;0.60;;;12.70;99.90;;;;;;5055768;28;20461;-82
2023/04/28 07:46:01;;;;;;;0.90;0.63;;;12.60;99.90;;;;;;5055655;28;20879;-82
2023/04/28 07:48:28;;;;;;;1.10;1.00;;;12.50;99.90;;;;;;5055937;28;20447;-81
2023/04/28 07:50:55;;;;;;;1.60;1.33;;;12.40;99.90;;;;;;5055548;28;20466;-80
2023/04/28 07:53:21;;;;;;;1.33;0.87;;;12.40;99.90;;;;;;5055590;28;20427;-80
2023/04/28 07:55:48;;;;;;;1.77;1.10;;;12.30;99.90;;;;;;5055560;28;20454;-80
2023/04/28 07:58:15;;;;;;;1.40;1.30;;;12.30;99.90;;;;;;5055101;28;20469;-82
2023/04/28 08:00:43;;;;;;;1.17;0.90;;;12.20;99.90;;;;;;5054848;28;20981;-83
2023/04/28 08:03:10;;;;;;;1.20;1.10;;;12.20;99.90;;;;;;5055434;28;20437;-83
2023/04/28 08:05:38;;;;;;;2.00;1.13;;;12.00;99.90;;;;;;5055329;28;20508;-83
2023/04/28 08:08:04;;;;;;;0.80;0.67;;;12.00;99.90;;;;;;5055299;28;20473;-83
2023/04/28 08:10:31;;;;;;;1.43;0.87;;;12.00;99.90;;;;;;5054808;28;20450;-83
2023/04/28 08:12:58;;;;;;;2.30;0.90;;;12.10;99.90;;;;;;5054957;28;20529;-83
2023/04/28 08:15:26;;;;;;;2.93;1.17;;;12.10;99.90;;;;;;5055169;28;20528;-83
2023/04/28 08:17:54;;;;;;;1.47;0.70;;;12.10;99.90;;;;;;5055104;28;20817;-83
2023/04/28 08:20:21;;;;;;;1.13;1.03;;;12.20;99.90;;;;;;5054986;28;20482;-82
2023/04/28 08:22:48;;;;;;;5.03;1.60;;;12.10;99.90;;;;;;5054629;28;20474;-81
2023/04/28 08:25:14;;;;;;;1.83;0.83;;;12.10;99.90;;;;;;5054945;28;20454;-82
2023/04/28 08:27:42;;;;;;;1.23;0.90;;;12.10;99.90;;;;;;5054933;28;20454;-82
2023/04/28 08:30:09;;;;;;;1.57;0.80;;;12.10;99.90;;;;;;5054853;28;20458;-82
2023/04/28 08:32:36;;;;;;;1.27;0.77;;;12.10;99.90;;;;;;5054771;28;20553;-82
2023/04/28 08:35:05;;;;;;;1.27;0.90;;;12.10;99.90;;;;;;5054369;28;20455;-83
2023/04/28 08:37:31;;;;;;;1.03;0.97;;;12.20;99.90;;;;;;5054653;28;20457;-82
2023/04/28 08:40:08;;;;;;;4.27;1.17;;;12.20;99.90;;;;;;5054342;28;20970;-82
2023/04/28 08:42:36;;;;;;;0.57;0.50;;;12.30;99.90;;;;;;5054583;28;20471;-82
2023/04/28 08:45:05;;;;;;;1.00;0.73;;;12.40;99.90;;;;;;5054532;28;20459;-81
2023/04/28 08:47:35;;;;;;;4.03;1.80;;;12.40;99.90;;;;;;5054402;28;21056;-81
2023/04/28 08:50:11;;;;;;;1.33;0.83;;;12.40;99.90;;;;;;5054543;28;20526;-81
2023/04/28 08:52:38;;;;;;;1.50;0.50;;;12.50;99.90;;;;;;5054153;28;20561;-82
2023/04/28 08:55:08;;;;;;;1.67;1.30;;;12.60;99.90;;;;;;5054522;28;20431;-82
2023/04/28 08:57:38;;;;;;;0.70;0.60;;;12.60;99.90;;;;;;5054103;28;20526;-82
2023/04/28 09:00:06;;;;;;;0.60;0.43;;;12.60;99.90;;;;;;5054447;28;20457;-82
2023/04/28 09:02:33;;;;;;;0.97;0.70;;;12.70;99.90;;;;;;5053894;28;20527;-81
2023/04/28 09:04:59;;;;;;;1.00;0.90;;;12.80;99.90;;;;;;5054265;28;20455;-82
2023/04/28 09:07:27;;;;;;;1.70;0.77;;;12.80;99.90;;;;;;5053977;28;20435;-80
2023/04/28 09:10:16;;;;;;;0.77;0.70;;;12.80;99.90;;;;;;5053054;28;20796;-81
2023/04/28 09:12:43;;;;;;;0.60;0.60;;;12.80;99.90;;;;;;5054018;28;20497;-81
2023/04/28 09:15:10;;;;;;;0.50;0.50;;;12.70;99.90;;;;;;5054023;28;20458;-81
2023/04/28 09:17:48;;;;;;;3.43;0.70;;;12.70;99.90;;;;;;5053713;28;20941;-81
2023/04/28 09:20:20;;;;;;;1.87;0.80;;;12.80;99.90;;;;;;5054132;28;20430;-81
2023/04/28 09:22:49;;;;;;;1.80;0.83;;;12.90;99.90;;;;;;5053646;28;20509;-81
2023/04/28 09:25:17;;;;;;;1.17;0.87;;;13.00;99.90;;;;;;5053857;28;20508;-81
2023/04/28 09:27:43;;;;;;;0.97;0.90;;;13.20;99.90;;;;;;5054584;28;20446;-81
2023/04/28 09:30:11;;;;;;;1.27;0.97;;;13.40;99.90;;;;;;5053479;28;20957;-81
2023/04/28 09:32:38;;;;;;;1.80;0.83;;;13.40;99.90;;;;;;5053389;28;20977;-81
2023/04/28 09:35:06;;;;;;;0.83;0.80;;;13.60;99.90;;;;;;5053671;28;20454;-82
2023/04/28 09:37:35;;;;;;;0.70;0.70;;;13.80;99.90;;;;;;5053608;28;20455;-81
2023/04/28 09:40:08;;;;;;;0.67;0.60;;;13.80;99.90;;;;;;5053582;28;20443;-82
2023/04/28 09:42:37;;;;;;;1.47;0.90;;;13.90;99.90;;;;;;5053415;28;20493;-81
2023/04/28 09:45:05;;;;;;;0.60;0.60;;;14.00;99.90;;;;;;5053436;28;20938;-82
2023/04/28 09:47:33;;;;;;;0.60;0.60;;;14.20;99.90;;;;;;5053280;28;20450;-81
2023/04/28 09:50:03;;;;;;;1.13;1.13;;;14.30;99.90;;;;;;5053204;28;20435;-81
2023/04/28 09:52:30;;;;;;;5.63;1.10;;;14.40;99.90;;;;;;5053329;28;20455;-81
2023/04/28 09:54:58;;;;;;;0.70;0.60;;;14.50;99.90;;;;;;5053077;28;20950;-81
2023/04/28 09:57:30;;;;;;;1.87;0.70;;;14.70;99.90;;;;;;5053375;28;20508;-81
2023/04/28 09:59:58;;;;;;;1.00;0.83;;;15.00;99.90;;;;;;5053423;28;20486;-82
2023/04/28 10:02:26;;;;;;;1.83;1.10;;;15.40;99.90;;;;;;5052816;28;20493;-81
2023/04/28 10:04:53;;;;;;;0.53;0.50;;;15.70;99.90;;;;;;5053071;28;20434;-82
2023/04/28 10:07:21;;;;;;;1.10;0.47;;;16.00;99.90;;;;;;5053426;28;20445;-82
2023/04/28 10:09:49;;;;;;;0.73;0.53;;;16.10;99.90;;;;;;5053376;28;20458;-82
2023/04/28 10:12:16;;;;;;;0.60;0.40;;;16.10;99.90;;;;;;5053191;28;20506;-82
2023/04/28 10:14:45;;;;;;;1.83;0.37;;;16.20;99.90;;;;;;5053201;28;20872;-81
2023/04/28 10:17:13;;;;;;;0.73;0.50;;;16.20;99.90;;;;;;5053517;28;20461;-82
2023/04/28 10:19:40;;;;;;;0.70;0.50;;;16.20;99.90;;;;;;5053969;28;20442;-82
2023/04/28 10:22:34;;;;;;;0.40;0.30;;;16.10;99.90;;;;;;5057211;28;20513;-82
2023/04/28 10:25:21;;;;;;;0.40;0.30;;;16.10;99.90;;;;;;5057266;28;20456;-82
2023/04/28 10:27:48;;;;;;;0.40;0.30;;;16.30;99.90;;;;;;5056914;28;20926;-81
2023/04/28 10:30:18;;;;;;;0.47;0.40;;;16.60;99.90;;;;;;5057179;28;20430;-81
2023/04/28 10:32:45;;;;;;;2.10;0.40;;;16.80;99.90;;;;;;5057045;28;20462;-81
2023/04/28 10:35:41;;;;;;;0.50;0.40;;;16.90;99.90;;;;;;5056826;28;20442;-81
2023/04/28 10:38:11;;;;;;;1.23;0.50;;;16.90;99.90;;;;;;5057039;28;20490;-81
2023/04/28 10:40:38;;;;;;;0.40;0.40;;;16.80;99.90;;;;;;5056564;28;21009;-81
2023/04/28 10:43:06;;;;;;;0.40;0.40;;;16.80;99.90;;;;;;5056669;28;20434;-82
2023/04/28 10:46:04;;;;;;;0.70;0.40;;;16.70;99.90;;;;;;5056983;28;20455;-87
2023/04/28 10:49:04;;;;;;;0.40;0.40;;;16.60;99.90;;;;;;5056898;28;20439;-82
2023/04/28 10:51:32;;;;;;;1.20;0.50;;;16.70;99.90;;;;;;5056457;28;20458;-81
2023/04/28 10:54:18;;;;;;;0.40;0.30;;;16.80;99.90;;;;;;5056876;28;20460;-81
2023/04/28 10:57:17;;;;;;;0.50;0.30;;;16.90;99.90;;;;;;5056937;28;20839;-81
2023/04/28 10:59:43;;;;;;;0.60;0.40;;;17.00;99.90;;;;;;5056696;28;20435;-82
2023/04/28 11:02:40;;;;;;;4.20;1.27;;;17.20;99.90;;;;;;5056326;28;20493;-82
2023/04/28 11:05:18;;;;;;;0.40;0.40;;;17.30;99.90;;;;;;5052498;28;20948;-82
2023/04/28 11:08:28;;;;;;;0.70;0.40;;;17.30;99.90;;;;;;5056602;28;20446;-81
2023/04/28 11:11:28;;;;;;;0.40;0.30;;;17.30;99.90;;;;;;5056377;28;20458;-82
2023/04/28 11:14:16;;;;;;;0.40;0.30;;;17.30;99.90;;;;;;5056386;28;20413;-81
2023/04/28 11:16:49;;;;;;;0.30;0.30;;;17.30;99.90;;;;;;5056010;28;20468;-82
2023/04/28 11:19:20;;;;;;;0.40;0.30;;;17.20;99.90;;;;;;5056038;28;20441;-82
2023/04/28 11:21:47;;;;;;;0.30;0.30;;;17.00;99.90;;;;;;5056036;28;20497;-82
2023/04/28 11:24:14;;;;;;;4.47;0.40;;;17.00;99.90;;;;;;5056197;28;20430;-81
2023/04/28 11:26:42;;;;;;;0.40;0.30;;;17.00;99.90;;;;;;5056107;28;20784;-81
2023/04/28 11:29:09;;;;;;;0.40;0.30;;;17.20;99.90;;;;;;5056047;28;20540;-82
2023/04/28 11:31:37;;;;;;;0.50;0.40;;;17.40;99.90;;;;;;5055172;28;20478;-81
2023/04/28 11:34:05;;;;;;;0.40;0.30;;;17.50;99.90;;;;;;5055954;28;20447;-82
2023/04/28 11:36:36;;;;;;;0.40;0.30;;;17.50;99.90;;;;;;5056168;28;20454;-82
2023/04/28 11:39:06;;;;;;;0.40;0.30;;;17.50;99.90;;;;;;5056159;28;20819;-82
2023/04/28 11:41:33;;;;;;;0.33;0.30;;;17.60;99.90;;;;;;5055682;28;20516;-82
2023/04/28 11:44:00;;;;;;;1.30;0.50;;;17.50;99.90;;;;;;5055771;28;20534;-82
2023/04/28 11:46:27;;;;;;;0.40;0.30;;;17.60;99.90;;;;;;5055733;28;20457;-83
2023/04/28 11:49:01;;;;;;;0.50;0.40;;;17.50;99.90;;;;;;5055425;28;20435;-82
2023/04/28 11:51:34;;;;;;;0.40;0.30;;;17.50;99.90;;;;;;5055265;28;20461;-82
2023/04/28 11:54:01;;;;;;;0.50;0.40;;;17.40;99.90;;;;;;5055625;28;20469;-82
2023/04/28 11:56:28;;;;;;;0.40;0.37;;;17.30;99.90;;;;;;5055632;28;20454;-82
2023/04/28 11:59:03;;;;;;;0.40;0.30;;;17.20;99.90;;;;;;5055497;28;20453;-82
2023/04/28 12:01:30;;;;;;;0.40;0.30;;;17.00;99.90;;;;;;5055062;28;20493;-83
2023/04/28 12:03:57;;;;;;;0.40;0.30;;;16.80;99.90;;;;;;5055107;28;20482;-83
2023/04/28 12:06:24;;;;;;;0.40;0.40;;;16.70;99.90;;;;;;5055345;28;20453;-83
2023/04/28 12:08:52;;;;;;;0.50;0.40;;;16.60;99.90;;;;;;5055710;28;20480;-82
2023/04/28 12:11:20;;;;;;;0.40;0.40;;;16.50;99.90;;;;;;5055238;28;20466;-82
2023/04/28 12:14:05;;;;;;;0.30;0.30;;;16.40;99.90;;;;;;5055859;28;20457;-83
2023/04/28 12:16:47;;;;;;;0.40;0.30;;;16.30;99.90;;;;;;5055179;28;20894;-83
2023/04/28 12:19:15;;;;;;;0.40;0.30;;;16.30;99.90;;;;;;5055271;28;20476;-83
2023/04/28 12:21:42;;;;;;;0.40;0.40;;;16.40;99.90;;;;;;5054900;28;20576;-83
2023/04/28 12:24:19;;;;;;;0.37;0.33;;;16.60;99.90;;;;;;5054965;28;20457;-83
2023/04/28 12:26:46;;;;;;;0.30;0.30;;;16.80;99.90;;;;;;5055061;28;20525;-83
2023/04/28 12:29:40;;;;;;;0.40;0.40;;;17.00;99.90;;;;;;5054959;28;20451;-83
2023/04/28 12:32:08;;;;;;;0.40;0.40;;;17.30;99.90;;;;;;5053423;28;20470;-82
2023/04/28 12:34:35;;;;;;;0.30;0.30;;;17.60;99.90;;;;;;5054692;28;20941;-82
2023/04/28 12:37:04;;;;;;;0.40;0.40;;;17.90;99.90;;;;;;5054791;28;20442;-82
2023/04/28 12:39:33;;;;;;;0.40;0.37;;;18.20;99.90;;;;;;5054441;28;20945;-83
2023/04/28 12:42:01;;;;;;;0.63;0.40;;;18.20;99.90;;;;;;5054516;28;20486;-83
2023/04/28 12:44:28;;;;;;;0.37;0.30;;;18.20;99.90;;;;;;5053516;28;20454;-83
2023/04/28 12:46:55;;;;;;;0.67;0.40;;;18.20;99.90;;;;;;5054298;28;20930;-83
2023/04/28 12:49:22;;;;;;;0.47;0.40;;;18.10;99.90;;;;;;5054575;28;20450;-83
2023/04/28 12:51:49;;;;;;;0.40;0.30;;;18.00;99.90;;;;;;5054438;28;20466;-83
2023/04/28 12:54:16;;;;;;;0.80;0.40;;;17.90;99.90;;;;;;5054483;28;20455;-83